Time;durP1;ratioP1;P1;durP2;ratioP2;P2;SDS_P1;SDS_P2;PMS_P1;PMS_P2;Temp;Humidity;BMP_temperature;BMP_pressure;BME280_temperature;BME280_humidity;BME280_pressure;Samples;Min_cycle;Max_cycle;Signal;HPM_P1;HPM_P2
2021/07/23 00:00:57;;;;;;;12.40;7.57;;;;;;;16.50;83.15;100520.25;4995735;28;20424;-70
2021/07/23 00:03:24;;;;;;;15.10;7.47;;;;;;;16.50;83.28;100512.16;4996263;28;20112;-69
2021/07/23 00:05:50;;;;;;;11.95;8.30;;;;;;;16.45;83.49;100508.16;4995948;28;20333;-70
2021/07/23 00:08:17;;;;;;;12.52;8.50;;;;;;;16.37;84.33;100511.44;4995728;28;20463;-69
2021/07/23 00:10:44;;;;;;;10.50;7.75;;;;;;;16.32;83.71;100505.56;4978713;28;20462;-69
2021/07/23 00:13:10;;;;;;;14.18;8.63;;;;;;;16.36;84.45;100510.59;4995687;28;20407;-70
2021/07/23 00:15:37;;;;;;;10.90;7.90;;;;;;;16.32;84.06;100511.81;4995821;28;20050;-68
2021/07/23 00:18:04;;;;;;;12.50;8.85;;;;;;;16.30;84.24;100503.00;4995758;28;20058;-69
2021/07/23 00:20:31;;;;;;;12.98;7.70;;;;;;;16.27;84.47;100511.31;4994909;28;20074;-70
2021/07/23 00:22:57;;;;;;;12.52;8.30;;;;;;;16.15;84.80;100508.66;4980189;28;20059;-69
2021/07/23 00:25:24;;;;;;;15.57;8.27;;;;;;;16.15;84.71;100502.38;4980062;28;20053;-69
2021/07/23 00:27:50;;;;;;;17.30;8.40;;;;;;;16.26;85.18;100498.84;4980211;28;20063;-69
2021/07/23 00:30:17;;;;;;;9.35;7.60;;;;;;;16.17;85.37;100505.81;4980098;28;20055;-70
2021/07/23 00:32:44;;;;;;;11.95;8.07;;;;;;;16.18;85.54;100493.22;4980018;28;20085;-69
2021/07/23 00:35:10;;;;;;;13.02;7.97;;;;;;;16.16;84.47;100501.41;5011391;28;20059;-68
2021/07/23 00:37:37;;;;;;;11.27;8.55;;;;;;;16.23;82.69;100491.00;4980209;28;20342;-69
2021/07/23 00:40:06;;;;;;;14.52;7.95;;;;;;;16.20;83.30;100496.63;4984472;28;20340;-70
2021/07/23 00:42:40;;;;;;;11.52;8.35;;;;;;;16.26;83.22;100498.84;4999530;28;20126;-69
2021/07/23 00:45:07;;;;;;;14.85;8.13;;;;;;;16.22;82.09;100500.03;4999207;28;20050;-69
2021/07/23 00:47:39;;;;;;;12.57;8.70;;;;;;;16.18;82.48;100495.91;4999382;28;20105;-69
2021/07/23 00:50:06;;;;;;;12.13;7.93;;;;;;;16.13;82.72;100486.34;4999198;28;20050;-70
2021/07/23 00:52:33;;;;;;;12.43;8.05;;;;;;;16.11;83.10;100487.44;4999437;28;20388;-70
2021/07/23 00:55:01;;;;;;;9.75;7.63;;;;;;;16.14;83.03;100488.06;4999021;28;20050;-70
2021/07/23 00:57:29;;;;;;;12.05;8.45;;;;;;;16.00;83.24;100483.78;4999468;28;20128;-69
2021/07/23 00:59:57;;;;;;;11.90;8.25;;;;;;;15.86;84.79;100479.44;4999319;28;20321;-70
2021/07/23 01:02:24;;;;;;;12.75;8.45;;;;;;;15.88;85.83;100485.56;4999047;28;20185;-69
2021/07/23 01:04:52;;;;;;;12.50;8.45;;;;;;;15.78;86.37;100487.25;4999074;28;20089;-68
2021/07/23 01:07:19;;;;;;;14.50;8.18;;;;;;;15.81;85.73;100483.47;4999101;28;20051;-70
2021/07/23 01:09:46;;;;;;;10.55;7.85;;;;;;;15.69;86.73;100474.53;4998945;28;20453;-71
2021/07/23 01:12:13;;;;;;;13.60;8.32;;;;;;;15.70;86.25;100476.25;4998730;28;20113;-70
2021/07/23 01:14:42;;;;;;;14.10;7.90;;;;;;;15.68;85.54;100483.59;4997774;28;20546;-69
2021/07/23 01:17:08;;;;;;;10.13;8.32;;;;;;;15.58;85.89;100473.50;4998599;28;20085;-69
2021/07/23 01:19:42;;;;;;;14.55;8.40;;;;;;;15.65;86.59;100483.81;4998952;28;20070;-68
2021/07/23 01:22:11;;;;;;;11.90;7.78;;;;;;;15.50;86.65;100478.63;5012491;28;20051;-69
2021/07/23 01:24:38;;;;;;;15.57;8.20;;;;;;;15.47;87.50;100481.53;4979377;28;20058;-70
2021/07/23 01:27:05;;;;;;;11.55;8.23;;;;;;;15.41;87.14;100479.34;4978106;28;20078;-70
2021/07/23 01:29:32;;;;;;;13.38;8.70;;;;;;;15.42;87.51;100476.53;4979093;28;20177;-70
2021/07/23 01:31:58;;;;;;;13.48;8.57;;;;;;;15.34;87.71;100479.81;4977776;28;20115;-69
2021/07/23 01:34:25;;;;;;;12.35;7.75;;;;;;;15.35;87.58;100477.97;4978968;28;20054;-69
2021/07/23 01:36:52;;;;;;;14.93;8.57;;;;;;;15.30;88.36;100472.06;4979077;28;20050;-69
2021/07/23 01:39:19;;;;;;;12.73;8.32;;;;;;;15.25;88.02;100472.44;5010125;28;20433;-70
2021/07/23 01:41:46;;;;;;;13.13;8.55;;;;;;;15.26;88.24;100476.84;4996906;28;20050;-70
2021/07/23 01:44:12;;;;;;;11.35;8.73;;;;;;;15.10;87.66;100447.59;4998600;28;20101;-70
2021/07/23 01:46:39;;;;;;;14.82;8.85;;;;;;;15.15;88.00;100469.59;4998046;28;20046;-69
2021/07/23 01:49:06;;;;;;;15.50;8.40;;;;;;;15.15;88.67;100471.44;4998183;28;20436;-68
2021/07/23 01:51:32;;;;;;;13.15;8.65;;;;;;;15.17;87.61;100469.47;4998199;28;20058;-70
2021/07/23 01:53:59;;;;;;;14.60;9.30;;;;;;;15.04;88.74;100469.56;4998188;28;20062;-68
2021/07/23 01:56:26;;;;;;;14.02;9.02;;;;;;;14.97;89.36;100468.31;4997869;28;20108;-69
2021/07/23 01:58:54;;;;;;;13.57;9.30;;;;;;;14.98;88.84;100460.09;5029521;28;20443;-68
2021/07/23 02:01:21;;;;;;;12.35;9.40;;;;;;;15.00;88.37;100462.69;4997049;28;20058;-70
2021/07/23 02:03:48;;;;;;;14.25;8.77;;;;;;;14.85;89.63;100467.38;4998074;28;20428;-70
2021/07/23 02:06:15;;;;;;;11.60;8.88;;;;;;;14.81;89.97;100464.06;4997643;28;20479;-68
2021/07/23 02:08:42;;;;;;;18.50;8.80;;;;;;;14.83;89.72;100462.13;4996907;28;20112;-68
2021/07/23 02:11:09;;;;;;;11.32;8.45;;;;;;;14.78;90.37;100458.91;4997947;28;20102;-68
2021/07/23 02:13:35;;;;;;;13.38;8.77;;;;;;;14.77;89.78;100451.84;4998086;28;20060;-70
2021/07/23 02:16:06;;;;;;;15.15;8.82;;;;;;;14.77;89.94;100458.03;4996925;28;20065;-69
2021/07/23 02:18:33;;;;;;;14.00;9.30;;;;;;;14.75;90.07;100460.00;4997801;28;20399;-69
2021/07/23 02:21:00;;;;;;;13.20;9.57;;;;;;;14.77;89.54;100458.03;4989621;28;20051;-70
2021/07/23 02:23:26;;;;;;;12.63;9.40;;;;;;;14.56;90.17;100432.75;4978002;28;20341;-68
2021/07/23 02:25:53;;;;;;;12.98;9.32;;;;;;;14.62;90.30;100451.97;4977889;28;20046;-68
2021/07/23 02:28:20;;;;;;;12.82;9.27;;;;;;;14.62;90.45;100454.66;5009503;28;20055;-69
2021/07/23 02:30:46;;;;;;;17.15;9.23;;;;;;;14.60;90.39;100453.88;4977930;28;20432;-68
2021/07/23 02:33:13;;;;;;;12.43;9.35;;;;;;;14.47;90.72;100447.69;4977953;28;20140;-69
2021/07/23 02:35:39;;;;;;;14.43;9.57;;;;;;;14.50;90.80;100456.38;5009380;28;20102;-69
2021/07/23 02:38:06;;;;;;;12.15;8.93;;;;;;;14.49;90.77;100443.94;4977808;28;20059;-69
2021/07/23 02:40:32;;;;;;;11.52;7.97;;;;;;;14.42;90.55;100431.09;4985890;28;20124;-70
2021/07/23 02:42:59;;;;;;;14.45;8.55;;;;;;;14.33;91.84;100436.13;4995874;28;20050;-70
2021/07/23 02:45:26;;;;;;;10.98;9.48;;;;;;;14.29;92.08;100448.09;4997001;28;20047;-70
2021/07/23 02:47:52;;;;;;;13.57;9.05;;;;;;;14.31;92.01;100440.75;4997090;28;20085;-69
2021/07/23 02:50:20;;;;;;;12.38;9.70;;;;;;;14.35;91.66;100436.91;4997305;28;20054;-69
2021/07/23 02:52:46;;;;;;;13.05;9.30;;;;;;;14.30;91.79;100443.56;4996886;28;20097;-69
2021/07/23 02:55:13;;;;;;;11.98;8.85;;;;;;;14.31;91.19;100445.25;4997101;28;20094;-70
2021/07/23 02:57:39;;;;;;;12.38;8.48;;;;;;;14.32;91.02;100436.28;4996894;28;20138;-68
2021/07/23 03:00:07;;;;;;;12.82;9.15;;;;;;;14.29;91.48;100431.09;4996825;28;20503;-70
2021/07/23 03:02:34;;;;;;;14.95;8.63;;;;;;;14.21;91.39;100428.97;4996685;28;20053;-69
2021/07/23 03:05:01;;;;;;;13.25;9.40;;;;;;;14.23;91.72;100433.25;4996672;28;20054;-69
2021/07/23 03:07:28;;;;;;;9.85;8.48;;;;;;;14.14;92.38;100428.56;4996502;28;20108;-70
2021/07/23 03:09:54;;;;;;;14.02;8.27;;;;;;;14.14;92.25;100433.94;4995817;28;20112;-70
2021/07/23 03:12:21;;;;;;;11.52;8.73;;;;;;;14.11;92.25;100428.78;4996561;28;20059;-70
2021/07/23 03:14:48;;;;;;;17.48;8.23;;;;;;;14.13;91.56;100427.69;4996750;28;20471;-70
2021/07/23 03:17:14;;;;;;;15.05;8.90;;;;;;;14.09;91.91;100431.59;4996847;28;20054;-68
2021/07/23 03:19:41;;;;;;;12.13;9.07;;;;;;;14.05;92.17;100416.66;4996515;28;20058;-69
2021/07/23 03:22:08;;;;;;;10.52;8.90;;;;;;;14.07;92.15;100432.66;4978959;28;20404;-71
2021/07/23 03:24:35;;;;;;;11.88;8.63;;;;;;;13.96;92.68;100420.84;4973551;28;20059;-69
2021/07/23 03:27:02;;;;;;;14.25;9.00;;;;;;;13.99;92.86;100419.78;4959823;28;20106;-70
2021/07/23 03:29:28;;;;;;;11.55;8.63;;;;;;;13.94;93.07;100425.47;4977883;28;20055;-69
2021/07/23 03:31:55;;;;;;;13.90;9.63;;;;;;;13.94;92.97;100425.47;4975016;28;20082;-70
2021/07/23 03:34:22;;;;;;;12.57;9.25;;;;;;;13.92;92.95;100422.06;4976631;28;20137;-69
2021/07/23 03:36:48;;;;;;;19.33;9.02;;;;;;;13.86;92.73;100425.16;4976585;28;20062;-68
2021/07/23 03:39:15;;;;;;;20.35;9.77;;;;;;;13.83;93.25;100422.69;5009213;28;20420;-69
2021/07/23 03:41:42;;;;;;;12.45;9.48;;;;;;;13.81;93.37;100412.09;4977310;28;20128;-70
2021/07/23 03:44:09;;;;;;;13.80;9.32;;;;;;;13.81;93.22;100412.09;4975621;28;20082;-69
2021/07/23 03:46:36;;;;;;;14.15;9.23;;;;;;;13.76;93.50;100411.53;4977773;28;20110;-70
2021/07/23 03:49:02;;;;;;;12.48;9.60;;;;;;;13.75;93.79;100414.31;4975083;28;20054;-68
2021/07/23 03:51:29;;;;;;;19.13;10.73;;;;;;;13.81;93.13;100417.44;5006042;28;20054;-70
2021/07/23 03:53:56;;;;;;;13.73;9.60;;;;;;;13.78;92.98;100411.44;4975415;28;20102;-69
2021/07/23 03:56:22;;;;;;;12.05;9.82;;;;;;;13.77;93.32;100415.09;4977391;28;20117;-69
2021/07/23 03:58:52;;;;;;;13.80;9.48;;;;;;;13.76;93.83;100418.72;4972159;28;20047;-69
2021/07/23 04:01:19;;;;;;;17.23;10.27;;;;;;;13.70;93.88;100409.28;4971116;28;20086;-69
2021/07/23 04:03:46;;;;;;;13.95;9.80;;;;;;;13.71;94.15;100411.88;4975877;28;20292;-69
2021/07/23 04:06:12;;;;;;;14.02;9.43;;;;;;;13.71;93.96;100413.69;4976096;28;20055;-70
2021/07/23 04:08:40;;;;;;;14.63;10.40;;;;;;;13.69;94.33;100416.47;4976595;28;20411;-69
2021/07/23 04:11:15;;;;;;;18.25;9.75;;;;;;;13.65;94.28;100406.06;4976024;28;20105;-69
2021/07/23 04:13:42;;;;;;;14.77;9.95;;;;;;;13.56;94.15;100386.09;4970681;28;20133;-69
2021/07/23 04:16:09;;;;;;;14.75;10.40;;;;;;;13.70;93.78;100406.59;4976067;28;20078;-70
2021/07/23 04:18:36;;;;;;;13.15;10.05;;;;;;;13.70;94.26;100409.28;4974951;28;20054;-70
2021/07/23 04:21:04;;;;;;;16.50;10.25;;;;;;;13.71;93.71;100405.63;4976093;28;20054;-70
2021/07/23 04:23:31;;;;;;;12.80;9.82;;;;;;;13.76;93.06;100408.00;4977349;28;20054;-68
2021/07/23 04:25:57;;;;;;;12.85;9.70;;;;;;;13.73;93.51;100398.34;4975728;28;20069;-69
2021/07/23 04:28:24;;;;;;;12.93;9.55;;;;;;;13.51;94.14;100365.00;5006793;28;20051;-76
2021/07/23 04:30:51;;;;;;;12.27;10.20;;;;;;;13.70;94.13;100406.59;4975520;28;20077;-70
2021/07/23 04:33:17;;;;;;;13.32;9.85;;;;;;;13.73;94.82;100414.44;4975743;28;20102;-68
2021/07/23 04:35:53;;;;;;;13.38;9.82;;;;;;;13.77;94.18;100410.56;4975856;28;20134;-69
2021/07/23 04:38:19;;;;;;;13.48;9.68;;;;;;;13.83;94.03;100403.91;4975985;28;20441;-69
2021/07/23 04:40:46;;;;;;;14.25;9.50;;;;;;;13.82;93.66;100408.44;4977022;28;20098;-70
2021/07/23 04:43:12;;;;;;;16.30;9.35;;;;;;;13.86;93.03;100403.69;4975732;28;20062;-69
2021/07/23 04:45:40;;;;;;;13.90;9.45;;;;;;;13.95;93.34;100413.78;4975813;28;20055;-71
2021/07/23 04:48:06;;;;;;;13.57;9.82;;;;;;;13.84;93.83;100394.91;4975087;28;20448;-68
2021/07/23 04:50:33;;;;;;;14.68;10.43;;;;;;;13.85;93.42;100393.94;4974614;28;20047;-74
2021/07/23 04:53:00;;;;;;;14.10;9.23;;;;;;;13.87;94.26;100396.50;4978125;28;20101;-76
2021/07/23 04:55:27;;;;;;;13.65;10.55;;;;;;;13.97;94.50;100406.50;4974711;28;20515;-74
2021/07/23 04:57:54;;;;;;;15.25;11.93;;;;;;;14.03;93.18;100405.19;4974404;28;20067;-75
2021/07/23 05:00:21;;;;;;;17.98;10.30;;;;;;;14.05;92.44;100391.66;5002670;28;20054;-78
2021/07/23 05:02:52;;;;;;;14.30;10.18;;;;;;;14.16;93.19;100398.94;4974314;28;20055;-74
2021/07/23 05:05:22;;;;;;;13.63;10.60;;;;;;;14.20;95.66;100409.34;4975830;28;20109;-74
2021/07/23 05:07:49;;;;;;;15.63;11.07;;;;;;;14.24;95.81;100404.59;4978108;28;20047;-73
2021/07/23 05:10:16;;;;;;;17.35;10.63;;;;;;;14.35;92.11;100404.69;4977725;28;20054;-75
2021/07/23 05:12:43;;;;;;;16.02;11.25;;;;;;;14.32;91.89;100404.06;4976902;28;20071;-73
2021/07/23 05:15:11;;;;;;;16.08;10.80;;;;;;;14.34;93.37;100402.09;4979083;28;20117;-74
2021/07/23 05:17:38;;;;;;;17.33;10.63;;;;;;;14.42;91.14;100406.91;4979262;28;20043;-74
2021/07/23 05:20:07;;;;;;;14.70;10.18;;;;;;;14.42;91.00;100409.59;4978141;28;20078;-74
2021/07/23 05:22:34;;;;;;;15.23;10.80;;;;;;;14.42;90.90;100405.06;4978400;28;20051;-74
2021/07/23 05:25:01;;;;;;;13.90;10.68;;;;;;;14.42;90.81;100407.75;4977484;28;20062;-72
2021/07/23 05:27:30;;;;;;;18.30;11.68;;;;;;;14.46;93.14;100411.94;4977458;28;20038;-71
2021/07/23 05:29:58;;;;;;;17.83;11.73;;;;;;;14.61;90.75;100414.47;4978410;28;20050;-71
2021/07/23 05:32:25;;;;;;;18.50;12.77;;;;;;;14.47;90.49;100400.22;4978606;28;20690;-71
2021/07/23 05:34:51;;;;;;;25.92;13.40;;;;;;;14.55;89.43;100404.19;4978725;28;20046;-73
2021/07/23 05:37:18;;;;;;;14.43;11.30;;;;;;;14.43;91.89;100400.56;4986442;28;20051;-72
2021/07/23 05:39:45;;;;;;;17.50;11.73;;;;;;;14.56;94.13;100408.56;4978230;28;20061;-72
2021/07/23 05:42:12;;;;;;;15.02;11.85;;;;;;;14.58;91.67;100399.44;4988583;28;20051;-73
2021/07/23 05:44:39;;;;;;;17.30;11.88;;;;;;;14.63;93.65;100399.09;4978100;28;20050;-72
2021/07/23 05:47:05;;;;;;;14.32;10.93;;;;;;;14.74;91.50;100403.69;4978811;28;20097;-74
2021/07/23 05:49:32;;;;;;;20.33;11.73;;;;;;;14.80;91.56;100408.59;4978022;28;20058;-72
2021/07/23 05:51:59;;;;;;;16.60;11.45;;;;;;;14.88;90.08;100400.81;4978325;28;20097;-71
2021/07/23 05:54:25;;;;;;;16.48;11.73;;;;;;;14.90;89.05;100409.63;4978701;28;20046;-70
2021/07/23 05:56:52;;;;;;;14.30;10.48;;;;;;;14.83;89.85;100403.00;4977482;28;20070;-77
2021/07/23 05:59:18;;;;;;;15.95;11.13;;;;;;;14.76;90.91;100374.91;4978110;28;20046;-77
2021/07/23 06:01:45;;;;;;;16.00;11.98;;;;;;;14.88;89.39;100397.28;4974268;28;20058;-79
2021/07/23 06:04:12;;;;;;;15.15;10.88;;;;;;;14.92;91.55;100398.75;4976121;28;20051;-77
2021/07/23 06:06:39;;;;;;;17.13;11.40;;;;;;;14.92;90.10;100401.44;4976315;28;20053;-69
2021/07/23 06:09:07;;;;;;;19.73;12.45;;;;;;;14.99;89.03;100402.69;4987480;28;20068;-70
2021/07/23 06:11:34;;;;;;;15.73;11.63;;;;;;;14.99;88.71;100393.78;4971724;28;20054;-68
2021/07/23 06:14:01;;;;;;;18.23;11.95;;;;;;;14.95;88.16;100379.72;4977023;28;20054;-69
2021/07/23 06:16:27;;;;;;;21.02;11.10;;;;;;;15.12;87.58;100399.06;4988553;28;20125;-68
2021/07/23 06:18:54;;;;;;;14.73;10.85;;;;;;;15.23;86.58;100399.09;4995907;28;20337;-69
2021/07/23 06:21:21;;;;;;;15.52;10.60;;;;;;;15.13;84.72;100376.56;4986429;28;20079;-69
2021/07/23 06:23:48;;;;;;;16.05;11.90;;;;;;;15.33;85.79;100389.38;4995803;28;20432;-69
2021/07/23 06:26:14;;;;;;;17.98;11.38;;;;;;;15.42;83.97;100389.63;4997132;28;20487;-69
2021/07/23 06:28:41;;;;;;;19.45;11.10;;;;;;;15.34;84.99;100371.38;4997368;28;20061;-70
2021/07/23 06:31:08;;;;;;;18.50;11.02;;;;;;;15.52;84.84;100387.06;5029063;28;20054;-69
2021/07/23 06:33:35;;;;;;;19.50;11.65;;;;;;;15.60;84.46;100393.53;5028865;28;20142;-70
2021/07/23 06:36:01;;;;;;;14.30;10.82;;;;;;;15.64;84.28;100396.00;4997134;28;20096;-70
2021/07/23 06:38:28;;;;;;;15.23;11.68;;;;;;;15.65;88.83;100393.19;4997502;28;20073;-70
2021/07/23 06:40:55;;;;;;;15.18;10.73;;;;;;;15.74;83.77;100391.59;4997088;28;20444;-69
2021/07/23 06:43:21;;;;;;;15.82;10.50;;;;;;;15.81;82.66;100398.22;4996164;28;20411;-70
2021/07/23 06:45:55;;;;;;;15.27;10.68;;;;;;;15.82;83.30;100399.06;4997309;28;20050;-70
2021/07/23 06:48:22;;;;;;;17.25;10.57;;;;;;;15.84;83.45;100391.72;4987176;28;20066;-69
2021/07/23 06:50:49;;;;;;;13.82;10.32;;;;;;;15.97;82.02;100399.72;4977840;28;20101;-70
2021/07/23 06:53:19;;;;;;;14.10;11.05;;;;;;;15.96;83.16;100401.53;4977567;28;20396;-70
2021/07/23 06:55:46;;;;;;;17.95;11.32;;;;;;;15.95;83.93;100399.00;4977580;28;20058;-69
2021/07/23 06:58:13;;;;;;;15.43;11.15;;;;;;;16.03;81.96;100401.91;4977485;28;20117;-70
2021/07/23 07:00:39;;;;;;;13.52;10.10;;;;;;;16.02;83.72;100392.13;4977323;28;20475;-70
2021/07/23 07:03:07;;;;;;;12.63;10.57;;;;;;;16.11;83.21;100404.84;4996666;28;20057;-69
2021/07/23 07:05:35;;;;;;;17.90;11.82;;;;;;;16.21;82.58;100410.34;4995941;28;20414;-70
2021/07/23 07:08:02;;;;;;;15.65;11.63;;;;;;;16.39;82.19;100407.97;4996654;28;20077;-69
2021/07/23 07:10:28;;;;;;;16.73;10.95;;;;;;;16.34;82.03;100410.19;4995744;28;20486;-69
2021/07/23 07:12:59;;;;;;;16.52;11.52;;;;;;;16.37;83.99;100403.69;4995453;28;20386;-70
2021/07/23 07:15:26;;;;;;;20.85;11.30;;;;;;;16.42;85.35;100404.19;4996404;28;20104;-69
2021/07/23 07:18:00;;;;;;;16.83;10.85;;;;;;;16.46;82.65;100407.47;4994669;28;20097;-70
2021/07/23 07:20:28;;;;;;;19.98;11.30;;;;;;;16.48;83.55;100400.97;4961354;28;20368;-69
2021/07/23 07:22:55;;;;;;;22.60;10.45;;;;;;;16.53;81.97;100403.28;4982138;28;20063;-69
2021/07/23 07:25:23;;;;;;;14.02;10.55;;;;;;;16.53;81.50;100400.59;4976620;28;20066;-70
2021/07/23 07:27:53;;;;;;;17.42;11.02;;;;;;;16.61;81.40;100399.97;4996407;28;20116;-69
2021/07/23 07:30:21;;;;;;;12.35;9.93;;;;;;;16.82;77.88;100408.09;4996600;28;20097;-70
2021/07/23 07:32:48;;;;;;;15.35;10.32;;;;;;;16.90;77.77;100410.16;4995109;28;20058;-70
2021/07/23 07:35:14;;;;;;;15.05;10.75;;;;;;;16.96;79.73;100409.66;4995151;28;20438;-69
2021/07/23 07:37:41;;;;;;;13.98;10.30;;;;;;;17.02;78.82;100409.16;4995033;28;20436;-69
2021/07/23 07:40:09;;;;;;;15.82;9.95;;;;;;;17.11;78.45;100407.53;5027623;28;20054;-70
2021/07/23 07:42:35;;;;;;;11.35;9.15;;;;;;;17.24;76.95;100418.13;4995878;28;20100;-69
2021/07/23 07:45:05;;;;;;;16.23;9.32;;;;;;;17.32;77.00;100418.31;4996263;28;20054;-69
2021/07/23 07:47:32;;;;;;;15.27;9.88;;;;;;;17.28;76.75;100413.31;4995848;28;20053;-69
2021/07/23 07:49:59;;;;;;;13.30;9.48;;;;;;;17.31;77.49;100402.25;4996088;28;20050;-69
2021/07/23 07:52:26;;;;;;;17.98;9.43;;;;;;;17.45;77.63;100414.56;4996127;28;20050;-69
2021/07/23 07:54:52;;;;;;;15.88;9.57;;;;;;;17.49;77.64;100416.03;4994942;28;20116;-70
2021/07/23 07:57:19;;;;;;;14.23;9.40;;;;;;;17.65;76.84;100410.13;4995508;28;20054;-68
2021/07/23 07:59:45;;;;;;;18.58;9.75;;;;;;;17.68;75.20;100407.16;4996180;28;20062;-68
2021/07/23 08:02:13;;;;;;;17.67;9.48;;;;;;;17.71;75.63;100409.59;5027731;28;20046;-68
2021/07/23 08:04:40;;;;;;;18.23;9.50;;;;;;;17.79;77.31;100406.22;4996051;28;20077;-69
2021/07/23 08:07:10;;;;;;;16.13;9.63;;;;;;;17.79;77.43;100398.13;5027667;28;20057;-68
2021/07/23 08:09:47;;;;;;;15.77;8.98;;;;;;;17.89;76.66;100393.63;4995681;28;20482;-68
2021/07/23 08:12:13;;;;;;;12.70;8.65;;;;;;;18.08;74.22;100388.47;5027274;28;20055;-68
2021/07/23 08:14:41;;;;;;;17.80;9.27;;;;;;;18.07;74.97;100387.59;4995840;28;20082;-69
2021/07/23 08:17:07;;;;;;;12.10;8.50;;;;;;;18.08;73.91;100380.38;4995902;28;20050;-69
2021/07/23 08:19:36;;;;;;;10.52;8.27;;;;;;;18.18;71.54;100384.81;4995753;28;20058;-68
2021/07/23 08:22:04;;;;;;;15.55;8.10;;;;;;;18.24;73.05;100385.25;4979242;28;20345;-71
2021/07/23 08:24:31;;;;;;;17.00;8.57;;;;;;;18.45;70.58;100374.31;4976156;28;20503;-69
2021/07/23 08:26:58;;;;;;;14.73;8.77;;;;;;;18.64;69.37;100369.94;5020615;28;20042;-69
2021/07/23 08:29:25;;;;;;;13.35;8.55;;;;;;;18.68;71.92;100365.97;5027316;28;20376;-69
2021/07/23 08:31:52;;;;;;;11.82;8.15;;;;;;;18.64;74.41;100360.00;4995658;28;20085;-68
2021/07/23 08:34:18;;;;;;;15.90;8.45;;;;;;;18.81;68.61;100347.63;4995627;28;20054;-69
2021/07/23 08:36:45;;;;;;;17.20;8.40;;;;;;;18.96;67.65;100352.59;4994356;28;20092;-69
2021/07/23 08:39:12;;;;;;;16.23;9.93;;;;;;;18.92;67.90;100346.59;4995680;28;20058;-69
2021/07/23 08:41:38;;;;;;;22.90;8.43;;;;;;;18.89;70.91;100335.22;4999348;28;20054;-69
2021/07/23 08:44:05;;;;;;;13.70;8.50;;;;;;;18.97;71.21;100343.47;4998295;28;20100;-69
2021/07/23 08:46:33;;;;;;;15.18;8.05;;;;;;;18.99;69.60;100344.16;4999433;28;20429;-69
2021/07/23 08:49:00;;;;;;;14.90;9.15;;;;;;;19.17;68.00;100335.34;4998272;28;20060;-69
2021/07/23 08:51:30;;;;;;;14.25;8.18;;;;;;;19.21;68.49;100334.91;4999592;28;20403;-68
2021/07/23 08:53:57;;;;;;;14.40;7.90;;;;;;;19.30;70.32;100338.59;4999219;28;20442;-69
2021/07/23 08:56:23;;;;;;;12.60;9.35;;;;;;;19.46;65.87;100350.66;4999126;28;20062;-69
2021/07/23 08:58:50;;;;;;;9.85;7.72;;;;;;;19.43;67.60;100350.97;4999213;28;20054;-68
2021/07/23 09:01:17;;;;;;;9.68;6.72;;;;;;;19.47;64.58;100333.41;4998083;28;20109;-69
2021/07/23 09:03:43;;;;;;;10.73;7.43;;;;;;;19.60;64.01;100342.03;4999234;28;20137;-69
2021/07/23 09:06:16;;;;;;;11.20;7.32;;;;;;;19.71;63.79;100348.28;4999158;28;20471;-69
2021/07/23 09:08:50;;;;;;;9.90;6.30;;;;;;;19.73;63.66;100336.31;4998981;28;20097;-69
2021/07/23 09:11:37;;;;;;;9.93;7.00;;;;;;;19.71;63.85;100329.34;4998985;28;20391;-69
2021/07/23 09:14:11;;;;;;;12.13;8.18;;;;;;;19.90;64.42;100348.22;4997724;28;20062;-69
2021/07/23 09:16:38;;;;;;;13.63;7.40;;;;;;;20.01;61.70;100347.19;4999187;28;20057;-69
2021/07/23 09:19:09;;;;;;;10.02;6.88;;;;;;;20.17;61.45;100351.94;4998662;28;20360;-69
2021/07/23 09:21:38;;;;;;;11.38;7.57;;;;;;;20.13;63.20;100336.97;4985976;28;20055;-69
2021/07/23 09:24:06;;;;;;;15.85;6.72;;;;;;;20.10;64.63;100342.69;4979331;28;20429;-69
2021/07/23 09:26:42;;;;;;;12.80;7.40;;;;;;;20.05;61.36;100345.03;4988943;28;20108;-69
2021/07/23 09:29:09;;;;;;;14.73;8.02;;;;;;;20.15;60.15;100344.97;4998752;28;20050;-69
2021/07/23 09:31:37;;;;;;;15.15;7.63;;;;;;;20.27;62.79;100335.59;4998878;28;20054;-69
2021/07/23 09:34:29;;;;;;;11.68;8.00;;;;;;;20.23;64.42;100331.50;4998411;28;20066;-69
2021/07/23 09:37:11;;;;;;;12.98;7.43;;;;;;;20.39;58.59;100314.56;4998338;28;20073;-69
2021/07/23 09:39:57;;;;;;;12.45;7.43;;;;;;;20.45;61.31;100322.06;4998535;28;20166;-69
2021/07/23 09:42:24;;;;;;;9.65;7.10;;;;;;;20.65;59.48;100331.91;5030142;28;20393;-69
2021/07/23 09:45:02;;;;;;;10.13;6.53;;;;;;;20.61;60.52;100325.94;4998212;28;20101;-69
2021/07/23 09:47:29;;;;;;;10.45;6.95;;;;;;;20.83;58.45;100323.75;4998423;28;20069;-69
2021/07/23 09:49:57;;;;;;;10.57;7.47;;;;;;;20.90;58.47;100322.13;4998026;28;20105;-70
2021/07/23 09:52:24;;;;;;;12.32;6.57;;;;;;;20.91;62.46;100315.69;4997238;28;20058;-70
2021/07/23 09:54:50;;;;;;;15.35;8.43;;;;;;;20.72;60.38;100317.56;4997229;28;20058;-70
2021/07/23 09:57:23;;;;;;;11.18;7.35;;;;;;;20.67;62.95;100303.63;4996921;28;20093;-70
2021/07/23 10:00:05;;;;;;;13.63;7.20;;;;;;;20.92;59.85;100303.81;4997901;28;20053;-70
2021/07/23 10:02:40;;;;;;;10.05;7.05;;;;;;;21.09;60.98;100314.81;4998181;28;20428;-70
2021/07/23 10:05:10;;;;;;;15.60;7.90;;;;;;;21.32;57.83;100308.84;4996993;28;20053;-70
2021/07/23 10:07:53;;;;;;;12.18;7.68;;;;;;;21.24;55.61;100291.50;4997871;28;20145;-70
2021/07/23 10:10:20;;;;;;;9.35;5.97;;;;;;;21.40;57.99;100296.16;4997743;28;20104;-69
2021/07/23 10:12:49;;;;;;;11.98;7.07;;;;;;;21.35;57.27;100287.66;5029264;28;20130;-69
2021/07/23 10:15:18;;;;;;;10.68;7.75;;;;;;;21.51;55.19;100286.88;4997726;28;20050;-70
2021/07/23 10:17:47;;;;;;;14.30;7.05;;;;;;;21.63;54.64;100292.88;4997804;28;20078;-70
2021/07/23 10:20:18;;;;;;;11.73;7.68;;;;;;;21.60;57.68;100273.34;4995657;28;20428;-70
2021/07/23 10:22:50;;;;;;;14.30;8.68;;;;;;;21.83;56.33;100271.78;4978407;28;20065;-70
2021/07/23 10:25:17;;;;;;;10.90;8.02;;;;;;;21.96;55.42;100278.63;4977267;28;20434;-70
2021/07/23 10:27:47;;;;;;;11.60;7.53;;;;;;;22.08;56.66;100271.00;4997155;28;20388;-70
2021/07/23 10:30:36;;;;;;;10.25;8.18;;;;;;;22.27;56.81;100261.66;4997488;28;20054;-69
2021/07/23 10:33:04;;;;;;;11.60;7.63;;;;;;;22.25;56.55;100261.84;4997386;28;20433;-70
2021/07/23 10:35:33;;;;;;;15.77;7.93;;;;;;;22.37;54.03;100254.22;4997140;28;20514;-69
2021/07/23 10:38:01;;;;;;;8.93;7.10;;;;;;;22.44;54.72;100245.38;4997535;28;20054;-70
2021/07/23 10:40:36;;;;;;;11.35;7.53;;;;;;;22.62;57.06;100248.78;4997305;28;20109;-69
2021/07/23 10:43:33;;;;;;;11.30;6.72;;;;;;;22.80;58.30;100242.31;4997339;28;20499;-69
2021/07/23 10:46:00;;;;;;;11.30;7.25;;;;;;;22.97;56.02;100231.38;4996909;28;20082;-70
2021/07/23 10:48:47;;;;;;;11.40;7.03;;;;;;;23.10;54.37;100228.16;4996970;28;20089;-70
2021/07/23 10:51:54;;;;;;;14.48;9.40;;;;;;;23.12;53.26;100236.97;4997173;28;20058;-69
2021/07/23 10:54:22;;;;;;;15.00;9.65;;;;;;;23.06;53.01;100233.09;4996762;28;20070;-69
2021/07/23 10:56:58;;;;;;;14.10;9.77;;;;;;;22.93;53.43;100234.47;4996882;28;20132;-69
2021/07/23 10:59:42;;;;;;;15.80;8.77;;;;;;;23.02;56.07;100223.56;4997229;28;20061;-69
2021/07/23 11:02:16;;;;;;;15.55;9.35;;;;;;;23.28;54.34;100214.28;4997200;28;20408;-70
2021/07/23 11:04:45;;;;;;;11.75;8.70;;;;;;;23.31;55.20;100227.59;4996785;28;20149;-69
2021/07/23 11:07:13;;;;;;;11.25;8.75;;;;;;;23.43;52.77;100220.72;4996811;28;20054;-69
2021/07/23 11:09:40;;;;;;;11.80;8.43;;;;;;;23.49;54.48;100212.88;4996872;28;20057;-69
2021/07/23 11:12:39;;;;;;;11.48;8.35;;;;;;;23.59;54.94;100216.25;4996578;28;20058;-69
2021/07/23 11:15:08;;;;;;;13.90;7.78;;;;;;;23.73;54.41;100212.75;4995904;28;20117;-69
2021/07/23 11:17:48;;;;;;;14.15;8.18;;;;;;;23.86;54.16;100211.31;4996519;28;20105;-70
2021/07/23 11:20:22;;;;;;;13.00;8.25;;;;;;;23.96;54.68;100203.75;4994497;28;20050;-70